sensor_id;sensor_type;location;lat;lon;timestamp;temperature;humidity
65460;DHT22;52058;49.822;6.754;2023-06-14T00:01:53;13.55;79.29
65460;DHT22;52058;49.822;6.754;2023-06-14T00:04:20;13.40;79.52
65460;DHT22;52058;49.822;6.754;2023-06-14T00:06:50;13.31;80.02
65460;DHT22;52058;49.822;6.754;2023-06-14T00:09:17;13.14;80.58
65460;DHT22;52058;49.822;6.754;2023-06-14T00:11:45;13.28;80.09
65460;DHT22;52058;49.822;6.754;2023-06-14T00:14:12;13.23;79.90
65460;DHT22;52058;49.822;6.754;2023-06-14T00:16:39;13.06;80.51
65460;DHT22;52058;49.822;6.754;2023-06-14T00:19:07;13.17;79.98
65460;DHT22;52058;49.822;6.754;2023-06-14T00:21:35;13.14;80.15
65460;DHT22;52058;49.822;6.754;2023-06-14T00:24:02;13.18;80.07
65460;DHT22;52058;49.822;6.754;2023-06-14T00:26:28;13.06;80.34
65460;DHT22;52058;49.822;6.754;2023-06-14T00:28:56;12.99;80.65
65460;DHT22;52058;49.822;6.754;2023-06-14T00:31:22;12.94;80.59
65460;DHT22;52058;49.822;6.754;2023-06-14T00:33:49;13.04;79.82
65460;DHT22;52058;49.822;6.754;2023-06-14T00:36:15;12.96;80.17
65460;DHT22;52058;49.822;6.754;2023-06-14T00:38:41;12.99;80.05
65460;DHT22;52058;49.822;6.754;2023-06-14T00:41:08;12.94;80.56
65460;DHT22;52058;49.822;6.754;2023-06-14T00:43:34;12.87;80.56
65460;DHT22;52058;49.822;6.754;2023-06-14T00:46:02;12.92;80.30
65460;DHT22;52058;49.822;6.754;2023-06-14T00:48:28;12.79;80.41
65460;DHT22;52058;49.822;6.754;2023-06-14T00:50:56;12.82;80.50
65460;DHT22;52058;49.822;6.754;2023-06-14T00:53:24;12.80;80.47
65460;DHT22;52058;49.822;6.754;2023-06-14T00:55:50;12.82;80.73
65460;DHT22;52058;49.822;6.754;2023-06-14T00:58:16;12.80;80.83
65460;DHT22;52058;49.822;6.754;2023-06-14T01:00:43;12.76;81.17
65460;DHT22;52058;49.822;6.754;2023-06-14T01:03:11;12.72;81.41
65460;DHT22;52058;49.822;6.754;2023-06-14T01:05:39;12.72;81.15
65460;DHT22;52058;49.822;6.754;2023-06-14T01:08:11;12.75;81.27
65460;DHT22;52058;49.822;6.754;2023-06-14T01:10:40;12.72;81.18
65460;DHT22;52058;49.822;6.754;2023-06-14T01:13:10;12.62;81.59
65460;DHT22;52058;49.822;6.754;2023-06-14T01:15:38;12.67;81.38
65460;DHT22;52058;49.822;6.754;2023-06-14T01:18:05;12.66;81.39
65460;DHT22;52058;49.822;6.754;2023-06-14T01:20:33;12.56;81.48
65460;DHT22;52058;49.822;6.754;2023-06-14T01:23:03;12.52;81.88
65460;DHT22;52058;49.822;6.754;2023-06-14T01:25:29;12.45;81.81
65460;DHT22;52058;49.822;6.754;2023-06-14T01:27:57;12.48;81.94
65460;DHT22;52058;49.822;6.754;2023-06-14T01:30:24;12.48;82.28
65460;DHT22;52058;49.822;6.754;2023-06-14T01:32:51;12.48;81.99
65460;DHT22;52058;49.822;6.754;2023-06-14T01:35:18;12.45;82.16
65460;DHT22;52058;49.822;6.754;2023-06-14T01:37:45;12.45;82.06
65460;DHT22;52058;49.822;6.754;2023-06-14T01:40:14;12.41;81.88
65460;DHT22;52058;49.822;6.754;2023-06-14T01:42:40;12.41;82.02
65460;DHT22;52058;49.822;6.754;2023-06-14T01:45:07;12.39;82.02
65460;DHT22;52058;49.822;6.754;2023-06-14T01:47:34;12.35;82.35
65460;DHT22;52058;49.822;6.754;2023-06-14T01:50:01;12.34;82.50
65460;DHT22;52058;49.822;6.754;2023-06-14T01:52:28;12.29;82.69
65460;DHT22;52058;49.822;6.754;2023-06-14T01:54:54;12.25;82.85
65460;DHT22;52058;49.822;6.754;2023-06-14T01:57:22;12.25;83.01
65460;DHT22;52058;49.822;6.754;2023-06-14T01:59:48;12.25;82.88
65460;DHT22;52058;49.822;6.754;2023-06-14T02:02:15;12.25;83.11
65460;DHT22;52058;49.822;6.754;2023-06-14T02:04:42;12.25;83.06
65460;DHT22;52058;49.822;6.754;2023-06-14T02:07:08;12.18;83.06
65460;DHT22;52058;49.822;6.754;2023-06-14T02:09:35;12.18;83.16
65460;DHT22;52058;49.822;6.754;2023-06-14T02:12:01;12.17;83.20
65460;DHT22;52058;49.822;6.754;2023-06-14T02:14:29;12.08;83.43
65460;DHT22;52058;49.822;6.754;2023-06-14T02:16:56;12.07;83.49
65460;DHT22;52058;49.822;6.754;2023-06-14T02:19:22;12.08;83.32
65460;DHT22;52058;49.822;6.754;2023-06-14T02:21:48;12.08;83.43
65460;DHT22;52058;49.822;6.754;2023-06-14T02:24:15;12.08;83.34
65460;DHT22;52058;49.822;6.754;2023-06-14T02:26:41;12.04;83.47
65460;DHT22;52058;49.822;6.754;2023-06-14T02:29:08;12.10;83.42
65460;DHT22;52058;49.822;6.754;2023-06-14T02:31:37;12.02;83.66
65460;DHT22;52058;49.822;6.754;2023-06-14T02:34:04;12.01;83.80
65460;DHT22;52058;49.822;6.754;2023-06-14T02:36:30;11.84;84.42
65460;DHT22;52058;49.822;6.754;2023-06-14T02:38:56;11.88;84.10
65460;DHT22;52058;49.822;6.754;2023-06-14T02:41:23;11.93;83.96
65460;DHT22;52058;49.822;6.754;2023-06-14T02:43:51;11.86;84.03
65460;DHT22;52058;49.822;6.754;2023-06-14T02:46:17;11.80;84.13
65460;DHT22;52058;49.822;6.754;2023-06-14T02:48:45;11.86;84.01
65460;DHT22;52058;49.822;6.754;2023-06-14T02:51:11;11.80;83.98
65460;DHT22;52058;49.822;6.754;2023-06-14T02:53:38;11.78;84.09
65460;DHT22;52058;49.822;6.754;2023-06-14T02:56:05;11.78;84.11
65460;DHT22;52058;49.822;6.754;2023-06-14T02:58:32;11.78;84.12
65460;DHT22;52058;49.822;6.754;2023-06-14T03:00:59;11.80;84.05
65460;DHT22;52058;49.822;6.754;2023-06-14T03:03:27;11.76;84.16
65460;DHT22;52058;49.822;6.754;2023-06-14T03:05:55;11.73;84.16
65460;DHT22;52058;49.822;6.754;2023-06-14T03:08:22;11.71;84.26
65460;DHT22;52058;49.822;6.754;2023-06-14T03:10:52;11.66;84.33
65460;DHT22;52058;49.822;6.754;2023-06-14T03:13:18;11.65;84.31
65460;DHT22;52058;49.822;6.754;2023-06-14T03:15:46;11.67;84.27
65460;DHT22;52058;49.822;6.754;2023-06-14T03:18:12;11.65;84.27
65460;DHT22;52058;49.822;6.754;2023-06-14T03:20:40;11.66;84.26
65460;DHT22;52058;49.822;6.754;2023-06-14T03:23:09;11.66;84.30
65460;DHT22;52058;49.822;6.754;2023-06-14T03:25:35;11.60;84.39
65460;DHT22;52058;49.822;6.754;2023-06-14T03:28:03;11.63;84.54
65460;DHT22;52058;49.822;6.754;2023-06-14T03:30:30;11.63;84.53
65460;DHT22;52058;49.822;6.754;2023-06-14T03:32:56;11.60;84.46
65460;DHT22;52058;49.822;6.754;2023-06-14T03:35:26;11.59;84.43
65460;DHT22;52058;49.822;6.754;2023-06-14T03:37:52;11.65;84.33
65460;DHT22;52058;49.822;6.754;2023-06-14T03:40:20;11.59;84.58
65460;DHT22;52058;49.822;6.754;2023-06-14T03:42:46;11.62;84.46
65460;DHT22;52058;49.822;6.754;2023-06-14T03:45:13;11.63;84.38
65460;DHT22;52058;49.822;6.754;2023-06-14T03:47:39;11.65;84.41
65460;DHT22;52058;49.822;6.754;2023-06-14T03:50:06;11.66;84.49
65460;DHT22;52058;49.822;6.754;2023-06-14T03:52:33;11.69;84.46
65460;DHT22;52058;49.822;6.754;2023-06-14T03:54:59;11.69;84.39
65460;DHT22;52058;49.822;6.754;2023-06-14T03:57:27;11.66;84.47
65460;DHT22;52058;49.822;6.754;2023-06-14T03:59:54;11.66;84.56
65460;DHT22;52058;49.822;6.754;2023-06-14T04:02:20;11.70;84.31
65460;DHT22;52058;49.822;6.754;2023-06-14T04:04:47;11.67;84.41
65460;DHT22;52058;49.822;6.754;2023-06-14T04:07:13;11.77;84.13
65460;DHT22;52058;49.822;6.754;2023-06-14T04:09:40;11.76;83.96
65460;DHT22;52058;49.822;6.754;2023-06-14T04:12:07;11.84;83.89
65460;DHT22;52058;49.822;6.754;2023-06-14T04:14:35;11.93;83.67
65460;DHT22;52058;49.822;6.754;2023-06-14T04:17:01;11.95;83.59
65460;DHT22;52058;49.822;6.754;2023-06-14T04:19:28;11.97;83.27
65460;DHT22;52058;49.822;6.754;2023-06-14T04:21:54;12.04;83.33
65460;DHT22;52058;49.822;6.754;2023-06-14T04:24:21;12.13;83.35
65460;DHT22;52058;49.822;6.754;2023-06-14T04:26:48;12.15;83.48
65460;DHT22;52058;49.822;6.754;2023-06-14T04:29:16;12.18;82.64
65460;DHT22;52058;49.822;6.754;2023-06-14T04:31:45;12.32;82.13
65460;DHT22;52058;49.822;6.754;2023-06-14T04:34:12;12.34;82.16
65460;DHT22;52058;49.822;6.754;2023-06-14T04:36:41;12.46;81.81
65460;DHT22;52058;49.822;6.754;2023-06-14T04:39:14;12.46;81.84
65460;DHT22;52058;49.822;6.754;2023-06-14T04:41:40;12.55;81.58
65460;DHT22;52058;49.822;6.754;2023-06-14T04:44:07;12.69;81.39
65460;DHT22;52058;49.822;6.754;2023-06-14T04:46:35;12.80;80.90
65460;DHT22;52058;49.822;6.754;2023-06-14T04:49:10;12.80;81.90
65460;DHT22;52058;49.822;6.754;2023-06-14T04:51:39;12.79;81.89
65460;DHT22;52058;49.822;6.754;2023-06-14T04:54:06;12.79;82.49
65460;DHT22;52058;49.822;6.754;2023-06-14T04:56:39;12.82;82.74
65460;DHT22;52058;49.822;6.754;2023-06-14T04:59:05;12.82;82.76
65460;DHT22;52058;49.822;6.754;2023-06-14T05:01:31;12.84;82.61
65460;DHT22;52058;49.822;6.754;2023-06-14T05:03:58;12.94;82.16
65460;DHT22;52058;49.822;6.754;2023-06-14T05:06:26;12.96;82.60
65460;DHT22;52058;49.822;6.754;2023-06-14T05:08:52;12.96;82.79
65460;DHT22;52058;49.822;6.754;2023-06-14T05:11:19;13.07;83.07
65460;DHT22;52058;49.822;6.754;2023-06-14T05:13:45;13.11;83.25
65460;DHT22;52058;49.822;6.754;2023-06-14T05:16:11;13.14;82.96
65460;DHT22;52058;49.822;6.754;2023-06-14T05:18:40;13.23;83.26
65460;DHT22;52058;49.822;6.754;2023-06-14T05:21:07;13.30;82.37
65460;DHT22;52058;49.822;6.754;2023-06-14T05:23:35;13.38;82.78
65460;DHT22;52058;49.822;6.754;2023-06-14T05:26:01;13.47;82.37
65460;DHT22;52058;49.822;6.754;2023-06-14T05:28:29;13.54;82.61
65460;DHT22;52058;49.822;6.754;2023-06-14T05:30:56;13.61;82.80
65460;DHT22;52058;49.822;6.754;2023-06-14T05:33:23;13.68;82.94
65460;DHT22;52058;49.822;6.754;2023-06-14T05:35:49;13.76;82.27
65460;DHT22;52058;49.822;6.754;2023-06-14T05:38:16;13.85;82.20
65460;DHT22;52058;49.822;6.754;2023-06-14T05:40:43;13.93;81.44
65460;DHT22;52058;49.822;6.754;2023-06-14T05:43:10;14.03;82.70
65460;DHT22;52058;49.822;6.754;2023-06-14T05:45:36;14.13;80.99
65460;DHT22;52058;49.822;6.754;2023-06-14T05:48:03;14.29;80.09
65460;DHT22;52058;49.822;6.754;2023-06-14T05:50:29;14.72;77.51
65460;DHT22;52058;49.822;6.754;2023-06-14T05:52:56;15.03;76.02
65460;DHT22;52058;49.822;6.754;2023-06-14T05:55:22;15.19;74.89
65460;DHT22;52058;49.822;6.754;2023-06-14T05:57:50;15.51;73.66
65460;DHT22;52058;49.822;6.754;2023-06-14T06:00:17;15.77;72.62
65460;DHT22;52058;49.822;6.754;2023-06-14T06:02:44;15.74;73.17
65460;DHT22;52058;49.822;6.754;2023-06-14T06:05:12;16.26;70.54
65460;DHT22;52058;49.822;6.754;2023-06-14T06:07:40;16.45;69.25
65460;DHT22;52058;49.822;6.754;2023-06-14T06:10:09;16.55;69.82
65460;DHT22;52058;49.822;6.754;2023-06-14T06:12:35;16.59;69.37
65460;DHT22;52058;49.822;6.754;2023-06-14T06:15:04;16.73;68.95
65460;DHT22;52058;49.822;6.754;2023-06-14T06:17:31;16.76;69.03
65460;DHT22;52058;49.822;6.754;2023-06-14T06:19:57;16.81;68.68
65460;DHT22;52058;49.822;6.754;2023-06-14T06:22:24;17.06;67.73
65460;DHT22;52058;49.822;6.754;2023-06-14T06:24:50;17.08;67.74
65460;DHT22;52058;49.822;6.754;2023-06-14T06:27:16;17.20;67.34
65460;DHT22;52058;49.822;6.754;2023-06-14T06:29:44;17.24;67.78
65460;DHT22;52058;49.822;6.754;2023-06-14T06:32:11;17.38;66.52
65460;DHT22;52058;49.822;6.754;2023-06-14T06:34:38;17.56;65.91
65460;DHT22;52058;49.822;6.754;2023-06-14T06:37:05;17.55;66.10
65460;DHT22;52058;49.822;6.754;2023-06-14T06:39:31;17.58;65.74
65460;DHT22;52058;49.822;6.754;2023-06-14T06:41:58;17.71;65.72
65460;DHT22;52058;49.822;6.754;2023-06-14T06:44:24;17.81;65.73
65460;DHT22;52058;49.822;6.754;2023-06-14T06:46:50;17.99;63.78
65460;DHT22;52058;49.822;6.754;2023-06-14T06:49:18;18.04;63.69
65460;DHT22;52058;49.822;6.754;2023-06-14T06:51:53;18.09;63.12
65460;DHT22;52058;49.822;6.754;2023-06-14T06:54:25;18.31;62.33
65460;DHT22;52058;49.822;6.754;2023-06-14T06:56:51;18.26;63.02
65460;DHT22;52058;49.822;6.754;2023-06-14T06:59:17;18.38;62.73
65460;DHT22;52058;49.822;6.754;2023-06-14T07:01:44;18.44;63.04
65460;DHT22;52058;49.822;6.754;2023-06-14T07:04:10;18.34;64.40
65460;DHT22;52058;49.822;6.754;2023-06-14T07:06:38;18.23;64.19
65460;DHT22;52058;49.822;6.754;2023-06-14T07:09:04;18.27;63.52
65460;DHT22;52058;49.822;6.754;2023-06-14T07:11:33;18.33;63.03
65460;DHT22;52058;49.822;6.754;2023-06-14T07:13:59;18.60;62.28
65460;DHT22;52058;49.822;6.754;2023-06-14T07:16:26;18.68;61.68
65460;DHT22;52058;49.822;6.754;2023-06-14T07:18:52;18.89;61.25
65460;DHT22;52058;49.822;6.754;2023-06-14T07:21:18;19.10;60.23
65460;DHT22;52058;49.822;6.754;2023-06-14T07:23:46;19.12;61.20
65460;DHT22;52058;49.822;6.754;2023-06-14T07:26:12;19.13;61.23
65460;DHT22;52058;49.822;6.754;2023-06-14T07:28:39;19.27;60.50
65460;DHT22;52058;49.822;6.754;2023-06-14T07:31:06;19.37;59.98
65460;DHT22;52058;49.822;6.754;2023-06-14T07:33:32;19.36;59.98
65460;DHT22;52058;49.822;6.754;2023-06-14T07:35:59;19.41;60.25
65460;DHT22;52058;49.822;6.754;2023-06-14T07:38:25;19.37;60.02
65460;DHT22;52058;49.822;6.754;2023-06-14T07:40:53;19.70;59.28
65460;DHT22;52058;49.822;6.754;2023-06-14T07:43:20;19.67;59.39
65460;DHT22;52058;49.822;6.754;2023-06-14T07:45:46;19.66;59.29
65460;DHT22;52058;49.822;6.754;2023-06-14T07:48:12;19.88;58.27
65460;DHT22;52058;49.822;6.754;2023-06-14T07:50:39;19.87;58.84
65460;DHT22;52058;49.822;6.754;2023-06-14T07:53:06;19.82;58.72
65460;DHT22;52058;49.822;6.754;2023-06-14T07:55:32;19.91;59.11
65460;DHT22;52058;49.822;6.754;2023-06-14T07:58:03;19.95;59.05
65460;DHT22;52058;49.822;6.754;2023-06-14T08:00:29;20.14;58.22
65460;DHT22;52058;49.822;6.754;2023-06-14T08:02:56;20.02;58.01
65460;DHT22;52058;49.822;6.754;2023-06-14T08:05:24;20.07;58.22
65460;DHT22;52058;49.822;6.754;2023-06-14T08:07:52;20.19;58.13
65460;DHT22;52058;49.822;6.754;2023-06-14T08:10:18;20.35;58.34
65460;DHT22;52058;49.822;6.754;2023-06-14T08:12:45;20.29;58.56
65460;DHT22;52058;49.822;6.754;2023-06-14T08:15:13;20.40;58.16
65460;DHT22;52058;49.822;6.754;2023-06-14T08:17:39;20.35;57.84
65460;DHT22;52058;49.822;6.754;2023-06-14T08:20:06;20.60;57.87
65460;DHT22;52058;49.822;6.754;2023-06-14T08:22:33;20.56;57.21
65460;DHT22;52058;49.822;6.754;2023-06-14T08:25:01;20.72;60.21
65460;DHT22;52058;49.822;6.754;2023-06-14T08:27:28;20.56;56.95
65460;DHT22;52058;49.822;6.754;2023-06-14T08:29:54;20.57;57.79
65460;DHT22;52058;49.822;6.754;2023-06-14T08:32:22;20.77;57.69
65460;DHT22;52058;49.822;6.754;2023-06-14T08:34:49;20.84;57.20
65460;DHT22;52058;49.822;6.754;2023-06-14T08:37:15;20.86;57.74
65460;DHT22;52058;49.822;6.754;2023-06-14T08:39:42;20.83;58.25
65460;DHT22;52058;49.822;6.754;2023-06-14T08:42:09;20.80;57.45
65460;DHT22;52058;49.822;6.754;2023-06-14T08:44:35;20.88;57.96
65460;DHT22;52058;49.822;6.754;2023-06-14T08:47:02;21.01;57.64
65460;DHT22;52058;49.822;6.754;2023-06-14T08:49:30;21.00;56.77
65460;DHT22;52058;49.822;6.754;2023-06-14T08:51:57;21.17;57.12
65460;DHT22;52058;49.822;6.754;2023-06-14T08:54:25;21.15;56.98
65460;DHT22;52058;49.822;6.754;2023-06-14T08:56:52;21.28;57.15
65460;DHT22;52058;49.822;6.754;2023-06-14T08:59:22;21.38;56.92
65460;DHT22;52058;49.822;6.754;2023-06-14T09:01:49;21.31;56.36
65460;DHT22;52058;49.822;6.754;2023-06-14T09:04:17;21.28;56.53
65460;DHT22;52058;49.822;6.754;2023-06-14T09:06:46;21.38;56.68
65460;DHT22;52058;49.822;6.754;2023-06-14T09:09:18;21.45;56.46
65460;DHT22;52058;49.822;6.754;2023-06-14T09:11:44;21.51;55.55
65460;DHT22;52058;49.822;6.754;2023-06-14T09:14:12;21.61;55.62
65460;DHT22;52058;49.822;6.754;2023-06-14T09:16:38;21.66;56.20
65460;DHT22;52058;49.822;6.754;2023-06-14T09:19:04;21.61;54.98
65460;DHT22;52058;49.822;6.754;2023-06-14T09:21:33;21.67;56.10
65460;DHT22;52058;49.822;6.754;2023-06-14T09:24:02;21.89;55.09
65460;DHT22;52058;49.822;6.754;2023-06-14T09:26:29;21.76;55.48
65460;DHT22;52058;49.822;6.754;2023-06-14T09:28:55;21.85;55.27
65460;DHT22;52058;49.822;6.754;2023-06-14T09:31:22;21.89;54.46
65460;DHT22;52058;49.822;6.754;2023-06-14T09:33:49;21.90;54.63
65460;DHT22;52058;49.822;6.754;2023-06-14T09:36:17;22.02;54.95
65460;DHT22;52058;49.822;6.754;2023-06-14T09:38:51;22.00;54.34
65460;DHT22;52058;49.822;6.754;2023-06-14T09:41:19;22.21;54.83
65460;DHT22;52058;49.822;6.754;2023-06-14T09:43:46;22.24;54.20
65460;DHT22;52058;49.822;6.754;2023-06-14T09:46:13;22.24;53.39
65460;DHT22;52058;49.822;6.754;2023-06-14T09:48:39;22.21;53.45
65460;DHT22;52058;49.822;6.754;2023-06-14T09:51:07;22.31;53.68
65460;DHT22;52058;49.822;6.754;2023-06-14T09:53:35;22.33;53.23
65460;DHT22;52058;49.822;6.754;2023-06-14T09:56:02;22.43;52.86
65460;DHT22;52058;49.822;6.754;2023-06-14T09:58:32;22.50;52.78
65460;DHT22;52058;49.822;6.754;2023-06-14T10:01:00;22.48;52.89
65460;DHT22;52058;49.822;6.754;2023-06-14T10:03:28;22.51;51.83
65460;DHT22;52058;49.822;6.754;2023-06-14T10:05:55;22.41;52.16
65460;DHT22;52058;49.822;6.754;2023-06-14T10:08:26;22.64;51.80
65460;DHT22;52058;49.822;6.754;2023-06-14T10:10:55;22.76;51.86
65460;DHT22;52058;49.822;6.754;2023-06-14T10:13:21;22.76;50.94
65460;DHT22;52058;49.822;6.754;2023-06-14T10:15:52;22.79;51.72
65460;DHT22;52058;49.822;6.754;2023-06-14T10:18:24;22.88;51.13
65460;DHT22;52058;49.822;6.754;2023-06-14T10:20:53;22.98;50.22
65460;DHT22;52058;49.822;6.754;2023-06-14T10:23:22;22.81;50.15
65460;DHT22;52058;49.822;6.754;2023-06-14T10:25:50;22.81;50.15
65460;DHT22;52058;49.822;6.754;2023-06-14T10:28:17;22.94;50.47
65460;DHT22;52058;49.822;6.754;2023-06-14T10:33:32;23.19;49.27
65460;DHT22;52058;49.822;6.754;2023-06-14T10:38:44;23.11;47.58
65460;DHT22;52058;49.822;6.754;2023-06-14T10:41:11;23.20;49.32
65460;DHT22;52058;49.822;6.754;2023-06-14T10:43:37;23.16;48.76
65460;DHT22;52058;49.822;6.754;2023-06-14T10:46:14;23.13;47.85
65460;DHT22;52058;49.822;6.754;2023-06-14T10:48:41;23.13;47.76
65460;DHT22;52058;49.822;6.754;2023-06-14T10:51:14;23.33;49.31
65460;DHT22;52058;49.822;6.754;2023-06-14T10:53:41;23.29;48.62
65460;DHT22;52058;49.822;6.754;2023-06-14T10:56:08;23.51;48.20
65460;DHT22;52058;49.822;6.754;2023-06-14T10:58:36;23.45;47.57
65460;DHT22;52058;49.822;6.754;2023-06-14T11:01:02;23.53;48.00
65460;DHT22;52058;49.822;6.754;2023-06-14T11:03:34;23.59;47.35
65460;DHT22;52058;49.822;6.754;2023-06-14T11:06:08;23.51;45.65
65460;DHT22;52058;49.822;6.754;2023-06-14T11:08:40;23.51;45.13
65460;DHT22;52058;49.822;6.754;2023-06-14T11:11:09;23.71;45.74
65460;DHT22;52058;49.822;6.754;2023-06-14T11:13:37;23.96;45.68
65460;DHT22;52058;49.822;6.754;2023-06-14T11:16:09;23.94;44.62
65460;DHT22;52058;49.822;6.754;2023-06-14T11:18:36;23.96;44.82
65460;DHT22;52058;49.822;6.754;2023-06-14T11:21:02;23.91;43.80
65460;DHT22;52058;49.822;6.754;2023-06-14T11:23:30;23.97;43.70
65460;DHT22;52058;49.822;6.754;2023-06-14T11:25:57;24.02;45.06
65460;DHT22;52058;49.822;6.754;2023-06-14T11:28:23;24.11;45.44
65460;DHT22;52058;49.822;6.754;2023-06-14T11:31:06;23.88;43.67
65460;DHT22;52058;49.822;6.754;2023-06-14T11:33:33;24.04;43.82
65460;DHT22;52058;49.822;6.754;2023-06-14T11:36:01;24.11;44.26
65460;DHT22;52058;49.822;6.754;2023-06-14T11:38:27;23.97;43.94
65460;DHT22;52058;49.822;6.754;2023-06-14T11:40:58;24.14;44.49
65460;DHT22;52058;49.822;6.754;2023-06-14T11:43:24;23.88;44.50
65460;DHT22;52058;49.822;6.754;2023-06-14T11:45:51;24.18;45.82
65460;DHT22;52058;49.822;6.754;2023-06-14T11:48:20;24.25;43.37
65460;DHT22;52058;49.822;6.754;2023-06-14T11:50:49;24.45;43.40
65460;DHT22;52058;49.822;6.754;2023-06-14T11:53:15;24.43;43.11
65460;DHT22;52058;49.822;6.754;2023-06-14T11:55:42;24.48;43.79
65460;DHT22;52058;49.822;6.754;2023-06-14T11:58:11;24.52;43.72
65460;DHT22;52058;49.822;6.754;2023-06-14T12:00:37;24.28;43.06
65460;DHT22;52058;49.822;6.754;2023-06-14T12:03:06;24.14;43.25
65460;DHT22;52058;49.822;6.754;2023-06-14T12:05:34;24.40;43.75
65460;DHT22;52058;49.822;6.754;2023-06-14T12:08:01;24.53;43.27
65460;DHT22;52058;49.822;6.754;2023-06-14T12:10:29;24.67;44.43
65460;DHT22;52058;49.822;6.754;2023-06-14T12:12:58;25.07;43.32
65460;DHT22;52058;49.822;6.754;2023-06-14T12:15:27;25.08;42.53
65460;DHT22;52058;49.822;6.754;2023-06-14T12:17:54;24.91;43.81
65460;DHT22;52058;49.822;6.754;2023-06-14T12:20:21;25.06;43.20
65460;DHT22;52058;49.822;6.754;2023-06-14T12:22:53;25.04;42.59
65460;DHT22;52058;49.822;6.754;2023-06-14T12:25:26;25.21;41.47
65460;DHT22;52058;49.822;6.754;2023-06-14T12:27:53;25.27;42.42
65460;DHT22;52058;49.822;6.754;2023-06-14T12:30:19;25.41;42.16
65460;DHT22;52058;49.822;6.754;2023-06-14T12:32:46;25.42;42.11
65460;DHT22;52058;49.822;6.754;2023-06-14T12:35:12;25.28;42.47
65460;DHT22;52058;49.822;6.754;2023-06-14T12:37:39;25.51;42.17
65460;DHT22;52058;49.822;6.754;2023-06-14T12:40:07;25.75;41.53
65460;DHT22;52058;49.822;6.754;2023-06-14T12:42:36;26.06;40.52
65460;DHT22;52058;49.822;6.754;2023-06-14T12:45:03;26.77;40.50
65460;DHT22;52058;49.822;6.754;2023-06-14T12:47:29;27.28;38.33
65460;DHT22;52058;49.822;6.754;2023-06-14T12:49:56;27.81;38.46
65460;DHT22;52058;49.822;6.754;2023-06-14T12:52:22;28.15;38.05
65460;DHT22;52058;49.822;6.754;2023-06-14T12:54:49;28.96;37.40
65460;DHT22;52058;49.822;6.754;2023-06-14T12:57:17;29.62;35.46
65460;DHT22;52058;49.822;6.754;2023-06-14T12:59:43;30.53;34.56
65460;DHT22;52058;49.822;6.754;2023-06-14T13:02:10;31.22;33.41
65460;DHT22;52058;49.822;6.754;2023-06-14T13:04:37;32.35;31.99
65460;DHT22;52058;49.822;6.754;2023-06-14T13:07:04;31.79;32.58
65460;DHT22;52058;49.822;6.754;2023-06-14T13:09:30;32.83;31.86
65460;DHT22;52058;49.822;6.754;2023-06-14T13:11:57;32.51;31.99
65460;DHT22;52058;49.822;6.754;2023-06-14T13:14:24;33.81;30.80
65460;DHT22;52058;49.822;6.754;2023-06-14T13:16:51;33.85;30.04
65460;DHT22;52058;49.822;6.754;2023-06-14T13:19:17;33.82;30.32
65460;DHT22;52058;49.822;6.754;2023-06-14T13:21:44;34.05;29.70
65460;DHT22;52058;49.822;6.754;2023-06-14T13:24:10;33.64;30.26
65460;DHT22;52058;49.822;6.754;2023-06-14T13:26:36;34.61;30.15
65460;DHT22;52058;49.822;6.754;2023-06-14T13:29:03;35.68;28.86
65460;DHT22;52058;49.822;6.754;2023-06-14T13:31:31;35.31;29.30
65460;DHT22;52058;49.822;6.754;2023-06-14T13:33:58;35.68;28.78
65460;DHT22;52058;49.822;6.754;2023-06-14T13:36:24;36.92;27.76
65460;DHT22;52058;49.822;6.754;2023-06-14T13:38:51;36.82;27.57
65460;DHT22;52058;49.822;6.754;2023-06-14T13:41:19;37.47;27.30
65460;DHT22;52058;49.822;6.754;2023-06-14T13:43:46;36.39;27.33
65460;DHT22;52058;49.822;6.754;2023-06-14T13:46:12;36.67;26.96
65460;DHT22;52058;49.822;6.754;2023-06-14T13:48:40;37.46;26.53
65460;DHT22;52058;49.822;6.754;2023-06-14T13:51:06;36.85;26.58
65460;DHT22;52058;49.822;6.754;2023-06-14T13:53:33;37.25;26.69
65460;DHT22;52058;49.822;6.754;2023-06-14T13:56:01;37.02;27.47
65460;DHT22;52058;49.822;6.754;2023-06-14T13:58:27;37.19;27.05
65460;DHT22;52058;49.822;6.754;2023-06-14T14:00:54;37.70;26.25
65460;DHT22;52058;49.822;6.754;2023-06-14T14:03:20;38.49;26.76
65460;DHT22;52058;49.822;6.754;2023-06-14T14:05:49;38.23;26.36
65460;DHT22;52058;49.822;6.754;2023-06-14T14:08:15;38.28;26.90
65460;DHT22;52058;49.822;6.754;2023-06-14T14:10:41;37.97;26.69
65460;DHT22;52058;49.822;6.754;2023-06-14T14:13:08;38.96;26.63
65460;DHT22;52058;49.822;6.754;2023-06-14T14:15:34;38.66;26.85
65460;DHT22;52058;49.822;6.754;2023-06-14T14:18:01;38.87;26.85
65460;DHT22;52058;49.822;6.754;2023-06-14T14:20:29;38.74;25.95
65460;DHT22;52058;49.822;6.754;2023-06-14T14:22:57;38.10;26.04
65460;DHT22;52058;49.822;6.754;2023-06-14T14:25:23;38.62;25.41
65460;DHT22;52058;49.822;6.754;2023-06-14T14:27:50;38.55;25.39
65460;DHT22;52058;49.822;6.754;2023-06-14T14:30:16;38.92;25.62
65460;DHT22;52058;49.822;6.754;2023-06-14T14:32:45;38.51;25.59
65460;DHT22;52058;49.822;6.754;2023-06-14T14:35:13;38.86;25.98
65460;DHT22;52058;49.822;6.754;2023-06-14T14:37:39;37.39;27.25
65460;DHT22;52058;49.822;6.754;2023-06-14T14:40:08;38.75;26.95
65460;DHT22;52058;49.822;6.754;2023-06-14T14:42:35;38.69;26.88
65460;DHT22;52058;49.822;6.754;2023-06-14T14:45:01;39.23;26.95
65460;DHT22;52058;49.822;6.754;2023-06-14T14:47:28;39.37;26.93
65460;DHT22;52058;49.822;6.754;2023-06-14T14:49:54;38.29;27.20
65460;DHT22;52058;49.822;6.754;2023-06-14T14:52:21;39.26;26.92
65460;DHT22;52058;49.822;6.754;2023-06-14T14:54:47;37.98;27.15
65460;DHT22;52058;49.822;6.754;2023-06-14T14:57:15;38.85;26.83
65460;DHT22;52058;49.822;6.754;2023-06-14T14:59:41;38.00;27.46
65460;DHT22;52058;49.822;6.754;2023-06-14T15:02:08;38.25;27.58
65460;DHT22;52058;49.822;6.754;2023-06-14T15:04:35;37.97;27.73
65460;DHT22;52058;49.822;6.754;2023-06-14T15:07:02;38.01;27.51
65460;DHT22;52058;49.822;6.754;2023-06-14T15:09:28;37.30;28.23
65460;DHT22;52058;49.822;6.754;2023-06-14T15:11:55;38.11;27.45
65460;DHT22;52058;49.822;6.754;2023-06-14T15:14:23;37.97;28.03
65460;DHT22;52058;49.822;6.754;2023-06-14T15:16:49;38.16;27.30
65460;DHT22;52058;49.822;6.754;2023-06-14T15:19:17;38.74;26.95
65460;DHT22;52058;49.822;6.754;2023-06-14T15:21:43;38.66;27.46
65460;DHT22;52058;49.822;6.754;2023-06-14T15:24:10;39.37;26.85
65460;DHT22;52058;49.822;6.754;2023-06-14T15:26:36;38.35;26.95
65460;DHT22;52058;49.822;6.754;2023-06-14T15:29:03;38.66;26.77
65460;DHT22;52058;49.822;6.754;2023-06-14T15:31:31;38.85;26.81
65460;DHT22;52058;49.822;6.754;2023-06-14T15:33:57;39.24;26.16
65460;DHT22;52058;49.822;6.754;2023-06-14T15:36:24;39.49;26.87